LGV327 SKRG-SEGU
Flight info
| Callsign | LGV327 |
|---|---|
| Flight time | 1h 22m |
| Altitude | 36000 |
| Route | RNG2B RNG UP778 QIT UW9 TEMOX TEMOX2 |
| Aircraft | B737/M-SDE2E3FGHIRWXY/LB1 |
Departure
| Time | 2026-04-26 15:46 |
|---|---|
| Airport | Jose Maria Córdova International Airport (SKRG) |
Arrival
| Time | 2026-04-26 17:08 |
|---|---|
| Airport | José Joaquín de Olmedo International Airport (SEGU) |
| Time | Latitude | Longitude | Altitude | Speed | Heading |
|---|---|---|---|---|---|
| 2026-04-26 15:22 | 6.16868 | -75.42824 | 7015 ft | 0 kts | 167° |
| 2026-04-26 15:34 | 6.16881 | -75.42828 | 7015 ft | 3 kts | 166° |
| 2026-04-26 15:34 | 6.16900 | -75.42837 | 7016 ft | 4 kts | 112° |
| 2026-04-26 15:34 | 6.16902 | -75.42862 | 7016 ft | 4 kts | 79° |
| 2026-04-26 15:35 | 6.16895 | -75.42889 | 7018 ft | 4 kts | 74° |
| 2026-04-26 15:35 | 6.16892 | -75.42899 | 7019 ft | 0 kts | 76° |
| 2026-04-26 15:38 | 6.16894 | -75.42894 | 7019 ft | 2 kts | 76° |
| 2026-04-26 15:38 | 6.16898 | -75.42877 | 7018 ft | 3 kts | 76° |
| 2026-04-26 15:38 | 6.16905 | -75.42848 | 7015 ft | 5 kts | 76° |
| 2026-04-26 15:38 | 6.16915 | -75.42807 | 7018 ft | 7 kts | 75° |
| 2026-04-26 15:39 | 6.16933 | -75.42758 | 7015 ft | 8 kts | 64° |
| 2026-04-26 15:39 | 6.16970 | -75.42710 | 7017 ft | 9 kts | 46° |
| 2026-04-26 15:39 | 6.17022 | -75.42663 | 7017 ft | 11 kts | 40° |
| 2026-04-26 15:39 | 6.17039 | -75.42644 | 7015 ft | 11 kts | 55° |
| 2026-04-26 15:40 | 6.16982 | -75.42551 | 7016 ft | 12 kts | 151° |
| 2026-04-26 15:40 | 6.16903 | -75.42507 | 7017 ft | 14 kts | 150° |
| 2026-04-26 15:40 | 6.16802 | -75.42486 | 7012 ft | 17 kts | 180° |
| 2026-04-26 15:40 | 6.16672 | -75.42485 | 7006 ft | 21 kts | 179° |
| 2026-04-26 15:41 | 6.16512 | -75.42484 | 6995 ft | 25 kts | 180° |
| 2026-04-26 15:41 | 6.16323 | -75.42482 | 6990 ft | 29 kts | 179° |
| 2026-04-26 15:41 | 6.16122 | -75.42480 | 6984 ft | 28 kts | 179° |
| 2026-04-26 15:41 | 6.15933 | -75.42480 | 6981 ft | 26 kts | 180° |
| 2026-04-26 15:42 | 6.15757 | -75.42479 | 6979 ft | 24 kts | 179° |
| 2026-04-26 15:42 | 6.15647 | -75.42478 | 6979 ft | 23 kts | 179° |
| 2026-04-26 15:42 | 6.15489 | -75.42477 | 6978 ft | 22 kts | 179° |
| 2026-04-26 15:42 | 6.15335 | -75.42476 | 6978 ft | 22 kts | 179° |
| 2026-04-26 15:43 | 6.15186 | -75.42475 | 6977 ft | 21 kts | 180° |
| 2026-04-26 15:43 | 6.15040 | -75.42474 | 6976 ft | 21 kts | 180° |
| 2026-04-26 15:43 | 6.14900 | -75.42422 | 6976 ft | 0 kts | 90° |
| 2026-04-26 15:44 | 6.14914 | -75.42341 | 6975 ft | 11 kts | 49° |
| 2026-04-26 15:44 | 6.15002 | -75.42305 | 6977 ft | 21 kts | 2° |
| 2026-04-26 15:45 | 6.16070 | -75.42311 | 6981 ft | 142 kts | 360° |
| 2026-04-26 15:45 | 6.17188 | -75.42315 | 7331 ft | 167 kts | 360° |
| 2026-04-26 15:46 | 6.19832 | -75.42305 | 8274 ft | 223 kts | 1° |
| 2026-04-26 15:46 | 6.21393 | -75.42187 | 9175 ft | 216 kts | 16° |
| 2026-04-26 15:46 | 6.22645 | -75.41496 | 10384 ft | 203 kts | 43° |
| 2026-04-26 15:46 | 6.23280 | -75.40791 | 10844 ft | 211 kts | 56° |
| 2026-04-26 15:47 | 6.24131 | -75.38874 | 11489 ft | 237 kts | 77° |
| 2026-04-26 15:47 | 6.23924 | -75.35731 | 13490 ft | 224 kts | 114° |
| 2026-04-26 15:47 | 6.23090 | -75.34360 | 14115 ft | 239 kts | 131° |
| 2026-04-26 15:48 | 6.21852 | -75.33208 | 14769 ft | 245 kts | 147° |
| 2026-04-26 15:48 | 6.20299 | -75.32529 | 15620 ft | 244 kts | 169° |
| 2026-04-26 15:48 | 6.18609 | -75.32429 | 16460 ft | 244 kts | 186° |
| 2026-04-26 15:48 | 6.16938 | -75.32755 | 17248 ft | 249 kts | 200° |
| 2026-04-26 15:49 | 6.15270 | -75.33472 | 17584 ft | 276 kts | 206° |
| 2026-04-26 15:49 | 6.13466 | -75.34377 | 17810 ft | 305 kts | 207° |
| 2026-04-26 15:49 | 6.11484 | -75.35379 | 18009 ft | 333 kts | 207° |
| 2026-04-26 15:49 | 6.09324 | -75.36450 | 18207 ft | 359 kts | 206° |
| 2026-04-26 15:50 | 6.07006 | -75.37575 | 18347 ft | 382 kts | 206° |
| 2026-04-26 15:50 | 6.04542 | -75.38752 | 18480 ft | 402 kts | 205° |
| 2026-04-26 15:50 | 6.01965 | -75.39973 | 18758 ft | 414 kts | 205° |
| 2026-04-26 15:50 | 5.99339 | -75.41214 | 19218 ft | 419 kts | 205° |
| 2026-04-26 15:51 | 5.96709 | -75.42394 | 19730 ft | 421 kts | 202° |
| 2026-04-26 15:51 | 5.93944 | -75.43500 | 20218 ft | 424 kts | 201° |
| 2026-04-26 15:51 | 5.91206 | -75.44542 | 20672 ft | 428 kts | 200° |
| 2026-04-26 15:51 | 5.88368 | -75.45605 | 21125 ft | 431 kts | 200° |
| 2026-04-26 15:52 | 5.85585 | -75.46648 | 21556 ft | 435 kts | 200° |
| 2026-04-26 15:52 | 5.82743 | -75.47720 | 21966 ft | 438 kts | 200° |
| 2026-04-26 15:52 | 5.79878 | -75.48808 | 22403 ft | 441 kts | 200° |
| 2026-04-26 15:52 | 5.77933 | -75.49549 | 22682 ft | 444 kts | 200° |
| 2026-04-26 15:53 | 5.74093 | -75.51019 | 23214 ft | 448 kts | 200° |
| 2026-04-26 15:53 | 5.71170 | -75.52142 | 23610 ft | 452 kts | 200° |
| 2026-04-26 15:53 | 5.68229 | -75.53273 | 23960 ft | 454 kts | 200° |
| 2026-04-26 15:53 | 5.65271 | -75.54410 | 24330 ft | 455 kts | 200° |
| 2026-04-26 15:54 | 5.62311 | -75.55549 | 24698 ft | 456 kts | 200° |
| 2026-04-26 15:54 | 5.59339 | -75.56689 | 25038 ft | 458 kts | 200° |
| 2026-04-26 15:54 | 5.56362 | -75.57833 | 25371 ft | 459 kts | 200° |
| 2026-04-26 15:54 | 5.53373 | -75.58979 | 25697 ft | 461 kts | 200° |
| 2026-04-26 15:55 | 5.50367 | -75.60133 | 26020 ft | 463 kts | 200° |
| 2026-04-26 15:55 | 5.47350 | -75.61291 | 26321 ft | 465 kts | 200° |
| 2026-04-26 15:55 | 5.44325 | -75.62453 | 26633 ft | 467 kts | 200° |
| 2026-04-26 15:55 | 5.41285 | -75.63621 | 26942 ft | 468 kts | 200° |
| 2026-04-26 15:56 | 5.38242 | -75.64790 | 27232 ft | 470 kts | 200° |
| 2026-04-26 15:56 | 5.35183 | -75.65964 | 27521 ft | 471 kts | 200° |
| 2026-04-26 15:56 | 5.32114 | -75.67142 | 27804 ft | 473 kts | 200° |
| 2026-04-26 15:56 | 5.29043 | -75.68321 | 28085 ft | 474 kts | 200° |
| 2026-04-26 15:57 | 5.25955 | -75.69505 | 28363 ft | 475 kts | 200° |
| 2026-04-26 15:57 | 5.22863 | -75.70691 | 28627 ft | 477 kts | 200° |
| 2026-04-26 15:57 | 5.19752 | -75.71884 | 28880 ft | 479 kts | 200° |
| 2026-04-26 15:57 | 5.17693 | -75.72674 | 29039 ft | 480 kts | 200° |
| 2026-04-26 15:58 | 5.13516 | -75.74275 | 29362 ft | 481 kts | 200° |
| 2026-04-26 15:58 | 5.10388 | -75.75475 | 29619 ft | 480 kts | 200° |
| 2026-04-26 15:58 | 5.07267 | -75.76672 | 29993 ft | 478 kts | 200° |
| 2026-04-26 15:58 | 5.04170 | -75.77859 | 30365 ft | 476 kts | 200° |
| 2026-04-26 15:59 | 5.01080 | -75.79044 | 30702 ft | 475 kts | 200° |
| 2026-04-26 15:59 | 4.97989 | -75.80228 | 31026 ft | 475 kts | 200° |
| 2026-04-26 15:59 | 4.94905 | -75.81410 | 31378 ft | 474 kts | 200° |
| 2026-04-26 15:59 | 4.91831 | -75.82588 | 31756 ft | 472 kts | 200° |
| 2026-04-26 16:00 | 4.88768 | -75.83761 | 32145 ft | 471 kts | 200° |
| 2026-04-26 16:00 | 4.85705 | -75.84935 | 32528 ft | 470 kts | 200° |
| 2026-04-26 16:00 | 4.82657 | -75.86102 | 32854 ft | 469 kts | 200° |
| 2026-04-26 16:00 | 4.79605 | -75.87271 | 33256 ft | 468 kts | 200° |
| 2026-04-26 16:01 | 4.76570 | -75.88433 | 33675 ft | 467 kts | 200° |
| 2026-04-26 16:01 | 4.73539 | -75.89594 | 34101 ft | 466 kts | 200° |
| 2026-04-26 16:01 | 4.70515 | -75.90752 | 34464 ft | 465 kts | 200° |
| 2026-04-26 16:01 | 4.67495 | -75.91909 | 34800 ft | 464 kts | 200° |
| 2026-04-26 16:02 | 4.64484 | -75.93059 | 35119 ft | 463 kts | 200° |
| 2026-04-26 16:02 | 4.61473 | -75.94210 | 35418 ft | 463 kts | 200° |
| 2026-04-26 16:02 | 4.58468 | -75.95360 | 35729 ft | 462 kts | 200° |
| 2026-04-26 16:02 | 4.56481 | -75.96121 | 35932 ft | 461 kts | 201° |
| 2026-04-26 16:03 | 4.52457 | -75.97661 | 36072 ft | 465 kts | 201° |
| 2026-04-26 16:03 | 4.46425 | -75.99970 | 36087 ft | 462 kts | 201° |
| 2026-04-26 16:04 | 4.40429 | -76.02267 | 36076 ft | 460 kts | 201° |
| 2026-04-26 16:04 | 4.34456 | -76.04552 | 36068 ft | 459 kts | 201° |
| 2026-04-26 16:05 | 4.28487 | -76.06835 | 36066 ft | 459 kts | 201° |
| 2026-04-26 16:05 | 4.22558 | -76.09102 | 36072 ft | 460 kts | 201° |
| 2026-04-26 16:06 | 4.16574 | -76.11390 | 36075 ft | 461 kts | 201° |
| 2026-04-26 16:06 | 4.10580 | -76.13681 | 36085 ft | 462 kts | 201° |
| 2026-04-26 16:07 | 4.04564 | -76.15980 | 36088 ft | 463 kts | 201° |
| 2026-04-26 16:07 | 3.98535 | -76.18285 | 36094 ft | 464 kts | 201° |
| 2026-04-26 16:08 | 3.92500 | -76.20590 | 36098 ft | 465 kts | 201° |
| 2026-04-26 16:08 | 3.86454 | -76.22900 | 36093 ft | 466 kts | 201° |
| 2026-04-26 16:09 | 3.80399 | -76.25213 | 36094 ft | 465 kts | 201° |
| 2026-04-26 16:09 | 3.74347 | -76.27524 | 36084 ft | 466 kts | 201° |
| 2026-04-26 16:10 | 3.68291 | -76.29837 | 36076 ft | 466 kts | 201° |
| 2026-04-26 16:10 | 3.62239 | -76.32148 | 36079 ft | 466 kts | 201° |
| 2026-04-26 16:11 | 3.56187 | -76.34457 | 36077 ft | 466 kts | 200° |
| 2026-04-26 16:11 | 3.50132 | -76.36770 | 36075 ft | 466 kts | 200° |
| 2026-04-26 16:12 | 3.44076 | -76.39080 | 36083 ft | 466 kts | 200° |
| 2026-04-26 16:12 | 3.35268 | -76.43177 | 36075 ft | 467 kts | 209° |
| 2026-04-26 16:13 | 3.29658 | -76.46449 | 36076 ft | 467 kts | 210° |
| 2026-04-26 16:13 | 3.24045 | -76.49726 | 36072 ft | 467 kts | 209° |
| 2026-04-26 16:14 | 3.18408 | -76.52967 | 36073 ft | 468 kts | 209° |
| 2026-04-26 16:15 | 3.09922 | -76.57805 | 36069 ft | 468 kts | 208° |
| 2026-04-26 16:15 | 3.04254 | -76.61033 | 36071 ft | 469 kts | 208° |
| 2026-04-26 16:16 | 2.95752 | -76.65878 | 36067 ft | 469 kts | 208° |
| 2026-04-26 16:16 | 2.90082 | -76.69108 | 36065 ft | 469 kts | 208° |
| 2026-04-26 16:17 | 2.84404 | -76.72343 | 36058 ft | 470 kts | 208° |
| 2026-04-26 16:17 | 2.78725 | -76.75578 | 36052 ft | 470 kts | 208° |
| 2026-04-26 16:18 | 2.70203 | -76.80432 | 36080 ft | 470 kts | 208° |
| 2026-04-26 16:19 | 2.61705 | -76.85272 | 36095 ft | 471 kts | 208° |
| 2026-04-26 16:20 | 2.53162 | -76.90135 | 36075 ft | 471 kts | 208° |
| 2026-04-26 16:20 | 2.44610 | -76.95004 | 36057 ft | 472 kts | 208° |
| 2026-04-26 16:21 | 2.38905 | -76.98252 | 36046 ft | 472 kts | 208° |
| 2026-04-26 16:21 | 2.33200 | -77.01499 | 36042 ft | 472 kts | 208° |
| 2026-04-26 16:22 | 2.27491 | -77.04748 | 36041 ft | 472 kts | 208° |
| 2026-04-26 16:22 | 2.21781 | -77.07998 | 36037 ft | 472 kts | 208° |
| 2026-04-26 16:23 | 2.16072 | -77.11246 | 36031 ft | 472 kts | 208° |
| 2026-04-26 16:23 | 2.10359 | -77.14496 | 36034 ft | 472 kts | 208° |
| 2026-04-26 16:24 | 2.04648 | -77.17746 | 36025 ft | 472 kts | 208° |
| 2026-04-26 16:24 | 1.98935 | -77.20996 | 36019 ft | 472 kts | 208° |
| 2026-04-26 16:25 | 1.93223 | -77.24245 | 36022 ft | 473 kts | 208° |
| 2026-04-26 16:25 | 1.88475 | -77.26946 | 36010 ft | 473 kts | 208° |
| 2026-04-26 16:26 | 1.82753 | -77.30200 | 36010 ft | 473 kts | 208° |
| 2026-04-26 16:26 | 1.76065 | -77.34003 | 36012 ft | 473 kts | 208° |
| 2026-04-26 16:27 | 1.70339 | -77.37260 | 36042 ft | 474 kts | 208° |
| 2026-04-26 16:27 | 1.64610 | -77.40517 | 36078 ft | 474 kts | 208° |
| 2026-04-26 16:28 | 1.59846 | -77.43226 | 36100 ft | 474 kts | 208° |
| 2026-04-26 16:28 | 1.54124 | -77.46480 | 36127 ft | 474 kts | 208° |
| 2026-04-26 16:29 | 1.48391 | -77.49738 | 36122 ft | 474 kts | 208° |
| 2026-04-26 16:29 | 1.42650 | -77.53002 | 36111 ft | 475 kts | 208° |
| 2026-04-26 16:30 | 1.36917 | -77.56262 | 36101 ft | 474 kts | 208° |
| 2026-04-26 16:30 | 1.31177 | -77.59524 | 36101 ft | 474 kts | 208° |
| 2026-04-26 16:31 | 1.25434 | -77.62788 | 36067 ft | 476 kts | 208° |
| 2026-04-26 16:31 | 1.19682 | -77.66057 | 36115 ft | 476 kts | 208° |
| 2026-04-26 16:32 | 1.13926 | -77.69329 | 36202 ft | 476 kts | 208° |
| 2026-04-26 16:32 | 1.08160 | -77.72605 | 36273 ft | 477 kts | 208° |
| 2026-04-26 16:33 | 1.02389 | -77.75886 | 36336 ft | 477 kts | 208° |
| 2026-04-26 16:33 | 0.96625 | -77.79161 | 36363 ft | 477 kts | 208° |
| 2026-04-26 16:34 | 0.90850 | -77.82444 | 36366 ft | 477 kts | 208° |
| 2026-04-26 16:34 | 0.85083 | -77.85722 | 36335 ft | 477 kts | 208° |
| 2026-04-26 16:35 | 0.79391 | -77.89121 | 36289 ft | 478 kts | 214° |
| 2026-04-26 16:35 | 0.74056 | -77.93083 | 36234 ft | 478 kts | 216° |
| 2026-04-26 16:36 | 0.68755 | -77.97091 | 36182 ft | 478 kts | 216° |
| 2026-04-26 16:36 | 0.63429 | -78.01065 | 36185 ft | 478 kts | 216° |
| 2026-04-26 16:37 | 0.58120 | -78.05001 | 36193 ft | 478 kts | 216° |
| 2026-04-26 16:37 | 0.52750 | -78.08984 | 36211 ft | 478 kts | 216° |
| 2026-04-26 16:38 | 0.47443 | -78.12924 | 36224 ft | 478 kts | 216° |
| 2026-04-26 16:38 | 0.42111 | -78.16895 | 36231 ft | 479 kts | 216° |
| 2026-04-26 16:39 | 0.36766 | -78.20878 | 36238 ft | 479 kts | 216° |
| 2026-04-26 16:39 | 0.31428 | -78.24855 | 36247 ft | 479 kts | 216° |
| 2026-04-26 16:40 | 0.26086 | -78.28834 | 36262 ft | 479 kts | 216° |
| 2026-04-26 16:40 | 0.20735 | -78.32820 | 36285 ft | 480 kts | 216° |
| 2026-04-26 16:41 | 0.15386 | -78.36805 | 36313 ft | 480 kts | 216° |
| 2026-04-26 16:41 | 0.10033 | -78.40793 | 36335 ft | 480 kts | 216° |
| 2026-04-26 16:42 | 0.04677 | -78.44783 | 36351 ft | 480 kts | 216° |
| 2026-04-26 16:42 | -0.00682 | -78.48775 | 36345 ft | 481 kts | 216° |
| 2026-04-26 16:43 | -0.05765 | -78.53107 | 36343 ft | 481 kts | 227° |
| 2026-04-26 16:43 | -0.10181 | -78.58125 | 36344 ft | 481 kts | 229° |
| 2026-04-26 16:44 | -0.14563 | -78.63192 | 36319 ft | 482 kts | 229° |
| 2026-04-26 16:44 | -0.18990 | -78.68233 | 36269 ft | 482 kts | 229° |
| 2026-04-26 16:45 | -0.23432 | -78.73246 | 36261 ft | 482 kts | 228° |
| 2026-04-26 16:45 | -0.27882 | -78.78259 | 36256 ft | 482 kts | 228° |
| 2026-04-26 16:46 | -0.32328 | -78.83271 | 36245 ft | 482 kts | 229° |
| 2026-04-26 16:46 | -0.36770 | -78.88282 | 36232 ft | 482 kts | 229° |
| 2026-04-26 16:47 | -0.41218 | -78.93300 | 36217 ft | 482 kts | 229° |
| 2026-04-26 16:47 | -0.45659 | -78.98311 | 36208 ft | 482 kts | 229° |
| 2026-04-26 16:48 | -0.50074 | -79.03291 | 36193 ft | 482 kts | 229° |
| 2026-04-26 16:48 | -0.54515 | -79.08302 | 36177 ft | 481 kts | 229° |
| 2026-04-26 16:49 | -0.59180 | -79.13078 | 36141 ft | 482 kts | 213° |
| 2026-04-26 16:49 | -0.65147 | -79.16081 | 36155 ft | 480 kts | 204° |
| 2026-04-26 16:50 | -0.71257 | -79.18798 | 36141 ft | 481 kts | 204° |
| 2026-04-26 16:50 | -0.77356 | -79.21555 | 36137 ft | 481 kts | 204° |
| 2026-04-26 16:51 | -0.83449 | -79.24368 | 35725 ft | 488 kts | 204° |
| 2026-04-26 16:51 | -0.86547 | -79.25806 | 34906 ft | 490 kts | 204° |
| 2026-04-26 16:51 | -0.89638 | -79.27243 | 33972 ft | 492 kts | 202° |
| 2026-04-26 16:52 | -0.92748 | -79.28688 | 33016 ft | 492 kts | 202° |
| 2026-04-26 16:52 | -0.94817 | -79.29650 | 32770 ft | 481 kts | 202° |
| 2026-04-26 16:52 | -0.98873 | -79.31535 | 31248 ft | 488 kts | 202° |
| 2026-04-26 16:52 | -1.01964 | -79.32971 | 30048 ft | 493 kts | 202° |
| 2026-04-26 16:53 | -1.05086 | -79.34420 | 28664 ft | 496 kts | 203° |
| 2026-04-26 16:53 | -1.08222 | -79.35876 | 27350 ft | 497 kts | 203° |
| 2026-04-26 16:53 | -1.11350 | -79.37328 | 26112 ft | 496 kts | 204° |
| 2026-04-26 16:53 | -1.14477 | -79.38779 | 24935 ft | 493 kts | 204° |
| 2026-04-26 16:54 | -1.17574 | -79.40216 | 23826 ft | 490 kts | 205° |
| 2026-04-26 16:54 | -1.20651 | -79.41644 | 22680 ft | 484 kts | 205° |
| 2026-04-26 16:54 | -1.23666 | -79.43046 | 21611 ft | 475 kts | 205° |
| 2026-04-26 16:54 | -1.26642 | -79.44430 | 20645 ft | 466 kts | 205° |
| 2026-04-26 16:55 | -1.29563 | -79.45788 | 19623 ft | 460 kts | 205° |
| 2026-04-26 16:55 | -1.32422 | -79.47116 | 18883 ft | 447 kts | 205° |
| 2026-04-26 16:55 | -1.35211 | -79.48412 | 18049 ft | 438 kts | 205° |
| 2026-04-26 16:55 | -1.37953 | -79.49686 | 17035 ft | 432 kts | 205° |
| 2026-04-26 16:56 | -1.43335 | -79.52186 | 15081 ft | 421 kts | 204° |
| 2026-04-26 16:56 | -1.45968 | -79.53409 | 14193 ft | 415 kts | 204° |
| 2026-04-26 16:56 | -1.48564 | -79.54615 | 13239 ft | 409 kts | 204° |
| 2026-04-26 16:57 | -1.51129 | -79.55806 | 12290 ft | 404 kts | 204° |
| 2026-04-26 16:57 | -1.53654 | -79.56979 | 11491 ft | 396 kts | 204° |
| 2026-04-26 16:57 | -1.58302 | -79.59140 | 10950 ft | 341 kts | 204° |
| 2026-04-26 16:58 | -1.60383 | -79.60107 | 10790 ft | 318 kts | 204° |
| 2026-04-26 16:58 | -1.61683 | -79.60712 | 10663 ft | 305 kts | 204° |
| 2026-04-26 16:58 | -1.65998 | -79.62717 | 9824 ft | 284 kts | 205° |
| 2026-04-26 16:59 | -1.67784 | -79.63547 | 9277 ft | 282 kts | 205° |
| 2026-04-26 16:59 | -1.71299 | -79.65181 | 8277 ft | 277 kts | 205° |
| 2026-04-26 17:00 | -1.74725 | -79.66773 | 7506 ft | 266 kts | 205° |
| 2026-04-26 17:00 | -1.78023 | -79.68307 | 6773 ft | 257 kts | 205° |
| 2026-04-26 17:00 | -1.79654 | -79.69066 | 6412 ft | 262 kts | 205° |
| 2026-04-26 17:01 | -1.81339 | -79.69849 | 6013 ft | 270 kts | 205° |
| 2026-04-26 17:01 | -1.83063 | -79.70651 | 5628 ft | 270 kts | 205° |
| 2026-04-26 17:01 | -1.84744 | -79.71433 | 5250 ft | 269 kts | 205° |
| 2026-04-26 17:01 | -1.86438 | -79.72221 | 4882 ft | 269 kts | 205° |
| 2026-04-26 17:02 | -1.88133 | -79.73010 | 4504 ft | 268 kts | 205° |
| 2026-04-26 17:02 | -1.89801 | -79.73786 | 4314 ft | 260 kts | 205° |
| 2026-04-26 17:02 | -1.91409 | -79.74533 | 4175 ft | 250 kts | 205° |
| 2026-04-26 17:02 | -1.92959 | -79.75255 | 4048 ft | 241 kts | 206° |
| 2026-04-26 17:03 | -1.94404 | -79.76031 | 3947 ft | 231 kts | 211° |
| 2026-04-26 17:03 | -1.95775 | -79.76814 | 3847 ft | 223 kts | 210° |
| 2026-04-26 17:03 | -1.97107 | -79.77564 | 3730 ft | 216 kts | 210° |
| 2026-04-26 17:03 | -1.98376 | -79.78292 | 3585 ft | 210 kts | 210° |
| 2026-04-26 17:04 | -1.99630 | -79.79019 | 3344 ft | 206 kts | 211° |
| 2026-04-26 17:04 | -2.00857 | -79.79731 | 3089 ft | 201 kts | 211° |
| 2026-04-26 17:04 | -2.02050 | -79.80424 | 2825 ft | 196 kts | 210° |
| 2026-04-26 17:04 | -2.03205 | -79.81094 | 2579 ft | 188 kts | 210° |
| 2026-04-26 17:05 | -2.04318 | -79.81740 | 2329 ft | 182 kts | 210° |
| 2026-04-26 17:05 | -2.05391 | -79.82362 | 2094 ft | 176 kts | 210° |
| 2026-04-26 17:05 | -2.06441 | -79.82972 | 1878 ft | 173 kts | 210° |
| 2026-04-26 17:05 | -2.07470 | -79.83569 | 1647 ft | 169 kts | 210° |
| 2026-04-26 17:06 | -2.08470 | -79.84149 | 1422 ft | 163 kts | 210° |
| 2026-04-26 17:06 | -2.09403 | -79.84691 | 1265 ft | 148 kts | 210° |
| 2026-04-26 17:06 | -2.10258 | -79.85187 | 1048 ft | 136 kts | 210° |
| 2026-04-26 17:06 | -2.11052 | -79.85648 | 888 ft | 129 kts | 210° |
| 2026-04-26 17:07 | -2.11830 | -79.86103 | 747 ft | 130 kts | 209° |
| 2026-04-26 17:07 | -2.12608 | -79.86558 | 593 ft | 131 kts | 209° |
| 2026-04-26 17:07 | -2.13402 | -79.87018 | 406 ft | 132 kts | 208° |
| 2026-04-26 17:07 | -2.14198 | -79.87478 | 221 ft | 129 kts | 207° |
| 2026-04-26 17:08 | -2.14985 | -79.87931 | 35 ft | 130 kts | 207° |
| 2026-04-26 17:08 | -2.15675 | -79.88326 | 27 ft | 97 kts | 210° |
| 2026-04-26 17:08 | -2.16154 | -79.88601 | 28 ft | 62 kts | 210° |
| 2026-04-26 17:08 | -2.16427 | -79.88759 | 27 ft | 36 kts | 210° |
| 2026-04-26 17:09 | -2.16630 | -79.88877 | 26 ft | 32 kts | 210° |
| 2026-04-26 17:09 | -2.16683 | -79.88907 | 29 ft | 20 kts | 209° |
| 2026-04-26 17:09 | -2.16687 | -79.89006 | 27 ft | 11 kts | 331° |
| 2026-04-26 17:09 | -2.16624 | -79.88980 | 27 ft | 11 kts | 26° |
| 2026-04-26 17:10 | -2.16560 | -79.88947 | 27 ft | 10 kts | 29° |
| 2026-04-26 17:10 | -2.16498 | -79.88913 | 27 ft | 10 kts | 29° |
| 2026-04-26 17:10 | -2.16440 | -79.88879 | 28 ft | 10 kts | 31° |
| 2026-04-26 17:10 | -2.16383 | -79.88845 | 27 ft | 9 kts | 31° |
| 2026-04-26 17:11 | -2.16327 | -79.88812 | 27 ft | 9 kts | 30° |
| 2026-04-26 17:11 | -2.16271 | -79.88780 | 27 ft | 9 kts | 30° |
| 2026-04-26 17:11 | -2.16209 | -79.88745 | 28 ft | 12 kts | 30° |
| 2026-04-26 17:11 | -2.16132 | -79.88700 | 28 ft | 14 kts | 31° |
| 2026-04-26 17:12 | -2.15940 | -79.88589 | 27 ft | 16 kts | 30° |
| 2026-04-26 17:12 | -2.15846 | -79.88535 | 28 ft | 15 kts | 30° |
| 2026-04-26 17:13 | -2.15780 | -79.88513 | 28 ft | 2 kts | 308° |
| 2026-04-26 17:13 | -2.15772 | -79.88527 | 28 ft | 2 kts | 299° |
| 2026-04-26 17:13 | -2.15758 | -79.88551 | 28 ft | 2 kts | 300° |
| 2026-04-26 17:14 | -2.15751 | -79.88563 | 28 ft | 2 kts | 299° |
| 2026-04-26 17:14 | -2.15750 | -79.88566 | 28 ft | 0 kts | 299° |